South Fort Myers, Florida
Current Conditions -  °F | °C
As of 12:53 AM on Wednesday 28 Jan 2015 (Local Time) from KFMY Reporting Station
Clear Clear  
Wind Chill: 60°   Ceiling: Unl
Heat Index: 60°   Visibility: 10mi
Dew Point: 53°   Wind: 15mph
Humidity: 78%   Direction: 350°N
Pressure: 30.06"   Gusts: 20mph
Location:  26.6372°N, 81.8725°W
Report Text: KFMY 280553Z 35013G17KT 10SM CLR 16/12 A3006 RMK AO2 SLP182 T01560117 10172 20156 53009
Loading
Personal Weather Stations






























Interactive Weather Map New forecast layout! Learn more

10-Day Weather Forecast

Advertisements
Track Severe Weather on mobile